sensor_id;sensor_type;location;lat;lon;timestamp;temperature;humidity
8372;DHT22;4223;48.724;8.982;2022-12-05T00:00:15;1.20;99.90
8372;DHT22;4223;48.724;8.982;2022-12-05T00:02:42;1.20;99.90
8372;DHT22;4223;48.724;8.982;2022-12-05T00:05:09;1.20;99.90
8372;DHT22;4223;48.724;8.982;2022-12-05T00:07:37;1.20;99.90
8372;DHT22;4223;48.724;8.982;2022-12-05T00:10:06;1.20;99.90
8372;DHT22;4223;48.724;8.982;2022-12-05T00:12:33;1.30;99.90
8372;DHT22;4223;48.724;8.982;2022-12-05T00:15:00;1.30;99.90
8372;DHT22;4223;48.724;8.982;2022-12-05T00:17:30;1.30;99.90
8372;DHT22;4223;48.724;8.982;2022-12-05T00:19:57;1.30;99.90
8372;DHT22;4223;48.724;8.982;2022-12-05T00:22:24;1.30;99.90
8372;DHT22;4223;48.724;8.982;2022-12-05T00:24:51;1.30;99.90
8372;DHT22;4223;48.724;8.982;2022-12-05T00:27:19;1.30;99.90
8372;DHT22;4223;48.724;8.982;2022-12-05T00:29:46;1.30;99.90
8372;DHT22;4223;48.724;8.982;2022-12-05T00:32:13;1.30;99.90
8372;DHT22;4223;48.724;8.982;2022-12-05T00:34:40;1.30;99.90
8372;DHT22;4223;48.724;8.982;2022-12-05T00:37:06;1.40;99.90
8372;DHT22;4223;48.724;8.982;2022-12-05T00:39:33;1.40;99.90
8372;DHT22;4223;48.724;8.982;2022-12-05T00:42:00;1.40;99.90
8372;DHT22;4223;48.724;8.982;2022-12-05T00:44:28;1.30;99.90
8372;DHT22;4223;48.724;8.982;2022-12-05T00:46:55;1.30;99.90
8372;DHT22;4223;48.724;8.982;2022-12-05T00:49:22;1.30;99.90
8372;DHT22;4223;48.724;8.982;2022-12-05T00:51:49;1.40;99.90
8372;DHT22;4223;48.724;8.982;2022-12-05T00:54:16;1.40;99.90
8372;DHT22;4223;48.724;8.982;2022-12-05T00:56:43;1.40;99.90
8372;DHT22;4223;48.724;8.982;2022-12-05T00:59:15;1.40;99.90
8372;DHT22;4223;48.724;8.982;2022-12-05T01:01:45;1.40;99.90
8372;DHT22;4223;48.724;8.982;2022-12-05T01:04:15;1.40;99.90
8372;DHT22;4223;48.724;8.982;2022-12-05T01:06:44;1.40;99.90
8372;DHT22;4223;48.724;8.982;2022-12-05T01:09:13;1.40;99.90
8372;DHT22;4223;48.724;8.982;2022-12-05T01:11:41;1.40;99.90
8372;DHT22;4223;48.724;8.982;2022-12-05T01:14:08;1.40;99.90
8372;DHT22;4223;48.724;8.982;2022-12-05T01:16:37;1.40;99.90
8372;DHT22;4223;48.724;8.982;2022-12-05T01:19:07;1.30;99.90
8372;DHT22;4223;48.724;8.982;2022-12-05T01:21:34;1.30;99.90
8372;DHT22;4223;48.724;8.982;2022-12-05T01:24:00;1.30;99.90
8372;DHT22;4223;48.724;8.982;2022-12-05T01:26:27;1.40;99.90
8372;DHT22;4223;48.724;8.982;2022-12-05T01:28:54;1.30;99.90
8372;DHT22;4223;48.724;8.982;2022-12-05T01:31:23;1.30;99.90
8372;DHT22;4223;48.724;8.982;2022-12-05T01:33:52;1.30;99.90
8372;DHT22;4223;48.724;8.982;2022-12-05T01:36:22;1.30;99.90
8372;DHT22;4223;48.724;8.982;2022-12-05T01:38:51;1.30;99.90
8372;DHT22;4223;48.724;8.982;2022-12-05T01:41:21;1.30;99.90
8372;DHT22;4223;48.724;8.982;2022-12-05T01:44:00;1.20;99.90
8372;DHT22;4223;48.724;8.982;2022-12-05T01:46:28;1.20;99.90
8372;DHT22;4223;48.724;8.982;2022-12-05T01:49:00;1.20;99.90
8372;DHT22;4223;48.724;8.982;2022-12-05T01:51:30;1.20;99.90
8372;DHT22;4223;48.724;8.982;2022-12-05T01:53:59;1.20;99.90
8372;DHT22;4223;48.724;8.982;2022-12-05T01:56:26;1.10;99.90
8372;DHT22;4223;48.724;8.982;2022-12-05T01:58:54;1.20;99.90
8372;DHT22;4223;48.724;8.982;2022-12-05T02:01:22;1.20;99.90
8372;DHT22;4223;48.724;8.982;2022-12-05T02:03:51;1.20;99.90
8372;DHT22;4223;48.724;8.982;2022-12-05T02:06:23;1.20;99.90
8372;DHT22;4223;48.724;8.982;2022-12-05T02:08:53;1.30;99.90
8372;DHT22;4223;48.724;8.982;2022-12-05T02:11:21;1.30;99.90
8372;DHT22;4223;48.724;8.982;2022-12-05T02:14:08;1.30;99.90
8372;DHT22;4223;48.724;8.982;2022-12-05T02:16:46;1.30;99.90
8372;DHT22;4223;48.724;8.982;2022-12-05T02:19:47;1.30;99.90
8372;DHT22;4223;48.724;8.982;2022-12-05T02:25:53;1.40;99.90
8372;DHT22;4223;48.724;8.982;2022-12-05T02:28:50;1.40;99.90
8372;DHT22;4223;48.724;8.982;2022-12-05T02:31:26;1.40;99.90
8372;DHT22;4223;48.724;8.982;2022-12-05T02:33:59;1.40;99.90
8372;DHT22;4223;48.724;8.982;2022-12-05T02:36:32;1.40;99.90
8372;DHT22;4223;48.724;8.982;2022-12-05T02:39:03;1.40;99.90
8372;DHT22;4223;48.724;8.982;2022-12-05T02:41:35;1.40;99.90
8372;DHT22;4223;48.724;8.982;2022-12-05T02:44:05;1.40;99.90
8372;DHT22;4223;48.724;8.982;2022-12-05T02:46:37;1.40;99.90
8372;DHT22;4223;48.724;8.982;2022-12-05T02:49:08;1.50;99.90
8372;DHT22;4223;48.724;8.982;2022-12-05T02:51:38;1.50;99.90
8372;DHT22;4223;48.724;8.982;2022-12-05T02:54:09;1.40;99.90
8372;DHT22;4223;48.724;8.982;2022-12-05T02:56:39;1.40;99.90
8372;DHT22;4223;48.724;8.982;2022-12-05T02:59:08;1.40;99.90
8372;DHT22;4223;48.724;8.982;2022-12-05T03:01:36;1.50;99.90
8372;DHT22;4223;48.724;8.982;2022-12-05T03:04:04;1.50;99.90
8372;DHT22;4223;48.724;8.982;2022-12-05T03:06:35;1.50;99.90
8372;DHT22;4223;48.724;8.982;2022-12-05T03:09:06;1.50;99.90
8372;DHT22;4223;48.724;8.982;2022-12-05T03:11:37;1.50;99.90
8372;DHT22;4223;48.724;8.982;2022-12-05T03:14:12;1.60;99.90
8372;DHT22;4223;48.724;8.982;2022-12-05T03:16:42;1.60;99.90
8372;DHT22;4223;48.724;8.982;2022-12-05T03:19:13;1.60;99.90
8372;DHT22;4223;48.724;8.982;2022-12-05T03:21:48;1.70;99.90
8372;DHT22;4223;48.724;8.982;2022-12-05T03:24:16;1.70;99.90
8372;DHT22;4223;48.724;8.982;2022-12-05T03:26:49;1.70;99.90
8372;DHT22;4223;48.724;8.982;2022-12-05T03:29:24;1.70;99.90
8372;DHT22;4223;48.724;8.982;2022-12-05T03:32:02;1.70;99.90
8372;DHT22;4223;48.724;8.982;2022-12-05T03:34:41;1.70;99.90
8372;DHT22;4223;48.724;8.982;2022-12-05T03:37:13;1.70;99.90
8372;DHT22;4223;48.724;8.982;2022-12-05T03:39:44;1.70;99.90
8372;DHT22;4223;48.724;8.982;2022-12-05T03:42:17;1.70;99.90
8372;DHT22;4223;48.724;8.982;2022-12-05T03:44:50;1.70;99.90
8372;DHT22;4223;48.724;8.982;2022-12-05T03:47:23;1.70;99.90
8372;DHT22;4223;48.724;8.982;2022-12-05T03:49:54;1.80;99.90
8372;DHT22;4223;48.724;8.982;2022-12-05T03:52:26;1.80;99.90
8372;DHT22;4223;48.724;8.982;2022-12-05T03:54:57;1.80;99.90
8372;DHT22;4223;48.724;8.982;2022-12-05T03:57:28;1.80;99.90
8372;DHT22;4223;48.724;8.982;2022-12-05T04:00:02;1.80;99.90
8372;DHT22;4223;48.724;8.982;2022-12-05T04:02:43;1.90;99.90
8372;DHT22;4223;48.724;8.982;2022-12-05T04:05:15;1.90;99.90
8372;DHT22;4223;48.724;8.982;2022-12-05T04:07:44;1.90;99.90
8372;DHT22;4223;48.724;8.982;2022-12-05T04:10:14;1.90;99.90
8372;DHT22;4223;48.724;8.982;2022-12-05T04:12:44;1.90;99.90
8372;DHT22;4223;48.724;8.982;2022-12-05T04:15:16;1.90;99.90
8372;DHT22;4223;48.724;8.982;2022-12-05T04:17:48;1.90;99.90
8372;DHT22;4223;48.724;8.982;2022-12-05T04:20:17;1.90;99.90
8372;DHT22;4223;48.724;8.982;2022-12-05T04:23:03;1.90;99.90
8372;DHT22;4223;48.724;8.982;2022-12-05T04:25:36;1.90;99.90
8372;DHT22;4223;48.724;8.982;2022-12-05T04:28:24;1.90;99.90
8372;DHT22;4223;48.724;8.982;2022-12-05T04:31:00;1.90;99.90
8372;DHT22;4223;48.724;8.982;2022-12-05T04:33:34;1.90;99.90
8372;DHT22;4223;48.724;8.982;2022-12-05T04:36:06;1.90;99.90
8372;DHT22;4223;48.724;8.982;2022-12-05T04:38:40;1.90;99.90
8372;DHT22;4223;48.724;8.982;2022-12-05T04:41:10;1.90;99.90
8372;DHT22;4223;48.724;8.982;2022-12-05T04:46:06;2.00;99.90
8372;DHT22;4223;48.724;8.982;2022-12-05T04:48:37;2.00;99.90
8372;DHT22;4223;48.724;8.982;2022-12-05T04:51:07;2.00;99.90
8372;DHT22;4223;48.724;8.982;2022-12-05T04:53:35;2.00;99.90
8372;DHT22;4223;48.724;8.982;2022-12-05T04:56:03;2.00;99.90
8372;DHT22;4223;48.724;8.982;2022-12-05T04:58:31;2.00;99.90
8372;DHT22;4223;48.724;8.982;2022-12-05T05:01:03;2.00;99.90
8372;DHT22;4223;48.724;8.982;2022-12-05T05:03:37;2.00;99.90
8372;DHT22;4223;48.724;8.982;2022-12-05T05:06:06;2.00;99.90
8372;DHT22;4223;48.724;8.982;2022-12-05T05:08:33;2.00;99.90
8372;DHT22;4223;48.724;8.982;2022-12-05T05:11:05;2.10;99.90
8372;DHT22;4223;48.724;8.982;2022-12-05T05:13:34;2.10;99.90
8372;DHT22;4223;48.724;8.982;2022-12-05T05:16:01;2.00;99.90
8372;DHT22;4223;48.724;8.982;2022-12-05T05:18:28;2.00;99.90
8372;DHT22;4223;48.724;8.982;2022-12-05T05:20:56;2.10;99.90
8372;DHT22;4223;48.724;8.982;2022-12-05T05:23:23;2.10;99.90
8372;DHT22;4223;48.724;8.982;2022-12-05T05:25:53;2.10;99.90
8372;DHT22;4223;48.724;8.982;2022-12-05T05:28:21;2.10;99.90
8372;DHT22;4223;48.724;8.982;2022-12-05T05:30:48;2.10;99.90
8372;DHT22;4223;48.724;8.982;2022-12-05T05:33:15;2.10;99.90
8372;DHT22;4223;48.724;8.982;2022-12-05T05:35:41;2.10;99.90
8372;DHT22;4223;48.724;8.982;2022-12-05T05:38:10;2.10;99.90
8372;DHT22;4223;48.724;8.982;2022-12-05T05:40:37;2.10;99.90
8372;DHT22;4223;48.724;8.982;2022-12-05T05:43:04;2.00;99.90
8372;DHT22;4223;48.724;8.982;2022-12-05T05:45:30;2.10;99.90
8372;DHT22;4223;48.724;8.982;2022-12-05T05:47:57;2.10;99.90
8372;DHT22;4223;48.724;8.982;2022-12-05T05:50:24;2.10;99.90
8372;DHT22;4223;48.724;8.982;2022-12-05T05:52:51;2.20;99.90
8372;DHT22;4223;48.724;8.982;2022-12-05T05:55:19;2.10;99.90
8372;DHT22;4223;48.724;8.982;2022-12-05T05:57:46;2.20;99.90
8372;DHT22;4223;48.724;8.982;2022-12-05T06:00:14;2.10;99.90
8372;DHT22;4223;48.724;8.982;2022-12-05T06:02:41;2.10;99.90
8372;DHT22;4223;48.724;8.982;2022-12-05T06:05:08;2.10;99.90
8372;DHT22;4223;48.724;8.982;2022-12-05T06:07:35;2.10;99.90
8372;DHT22;4223;48.724;8.982;2022-12-05T06:10:03;2.10;99.90
8372;DHT22;4223;48.724;8.982;2022-12-05T06:12:31;2.10;99.90
8372;DHT22;4223;48.724;8.982;2022-12-05T06:14:58;2.10;99.90
8372;DHT22;4223;48.724;8.982;2022-12-05T06:17:25;2.10;99.90
8372;DHT22;4223;48.724;8.982;2022-12-05T06:19:52;2.10;99.90
8372;DHT22;4223;48.724;8.982;2022-12-05T06:22:19;2.10;99.90
8372;DHT22;4223;48.724;8.982;2022-12-05T06:24:45;2.10;99.90
8372;DHT22;4223;48.724;8.982;2022-12-05T06:27:13;2.10;99.90
8372;DHT22;4223;48.724;8.982;2022-12-05T06:29:41;2.10;99.90
8372;DHT22;4223;48.724;8.982;2022-12-05T06:32:08;2.10;99.90
8372;DHT22;4223;48.724;8.982;2022-12-05T06:34:35;2.10;99.90
8372;DHT22;4223;48.724;8.982;2022-12-05T06:37:02;2.10;99.90
8372;DHT22;4223;48.724;8.982;2022-12-05T06:39:29;2.10;99.90
8372;DHT22;4223;48.724;8.982;2022-12-05T06:41:56;2.10;99.90
8372;DHT22;4223;48.724;8.982;2022-12-05T06:44:23;2.10;99.90
8372;DHT22;4223;48.724;8.982;2022-12-05T06:46:53;2.10;99.90
8372;DHT22;4223;48.724;8.982;2022-12-05T06:49:20;2.20;99.90
8372;DHT22;4223;48.724;8.982;2022-12-05T06:51:47;2.10;99.90
8372;DHT22;4223;48.724;8.982;2022-12-05T06:54:13;2.20;99.90
8372;DHT22;4223;48.724;8.982;2022-12-05T06:56:40;2.10;99.90
8372;DHT22;4223;48.724;8.982;2022-12-05T06:59:07;2.20;99.90
8372;DHT22;4223;48.724;8.982;2022-12-05T07:01:34;2.10;99.90
8372;DHT22;4223;48.724;8.982;2022-12-05T07:04:06;2.20;99.90
8372;DHT22;4223;48.724;8.982;2022-12-05T07:06:35;2.20;99.90
8372;DHT22;4223;48.724;8.982;2022-12-05T07:09:03;2.20;99.90
8372;DHT22;4223;48.724;8.982;2022-12-05T07:11:30;2.30;99.90
8372;DHT22;4223;48.724;8.982;2022-12-05T07:13:57;2.30;99.90
8372;DHT22;4223;48.724;8.982;2022-12-05T07:16:24;2.30;99.90
8372;DHT22;4223;48.724;8.982;2022-12-05T07:18:51;2.30;99.90
8372;DHT22;4223;48.724;8.982;2022-12-05T07:21:19;2.30;99.90
8372;DHT22;4223;48.724;8.982;2022-12-05T07:23:47;2.30;99.90
8372;DHT22;4223;48.724;8.982;2022-12-05T07:26:17;2.30;99.90
8372;DHT22;4223;48.724;8.982;2022-12-05T07:28:44;2.40;99.90
8372;DHT22;4223;48.724;8.982;2022-12-05T07:31:13;2.40;99.90
8372;DHT22;4223;48.724;8.982;2022-12-05T07:33:40;2.50;99.90
8372;DHT22;4223;48.724;8.982;2022-12-05T07:36:09;2.50;99.90
8372;DHT22;4223;48.724;8.982;2022-12-05T07:38:38;2.50;99.90
8372;DHT22;4223;48.724;8.982;2022-12-05T07:41:06;2.60;99.90
8372;DHT22;4223;48.724;8.982;2022-12-05T07:43:33;2.60;99.90
8372;DHT22;4223;48.724;8.982;2022-12-05T07:46:01;2.70;99.90
8372;DHT22;4223;48.724;8.982;2022-12-05T07:48:28;2.70;99.90
8372;DHT22;4223;48.724;8.982;2022-12-05T07:50:59;2.80;99.90
8372;DHT22;4223;48.724;8.982;2022-12-05T07:53:26;2.80;99.90
8372;DHT22;4223;48.724;8.982;2022-12-05T07:55:57;2.80;99.90
8372;DHT22;4223;48.724;8.982;2022-12-05T07:58:23;2.80;99.90
8372;DHT22;4223;48.724;8.982;2022-12-05T08:00:50;2.80;99.90
8372;DHT22;4223;48.724;8.982;2022-12-05T08:03:17;2.70;99.90
8372;DHT22;4223;48.724;8.982;2022-12-05T08:05:44;2.80;99.90
8372;DHT22;4223;48.724;8.982;2022-12-05T08:08:11;2.80;99.90
8372;DHT22;4223;48.724;8.982;2022-12-05T08:10:38;2.80;99.90
8372;DHT22;4223;48.724;8.982;2022-12-05T08:13:06;2.90;99.90
8372;DHT22;4223;48.724;8.982;2022-12-05T08:15:34;2.90;99.90
8372;DHT22;4223;48.724;8.982;2022-12-05T08:18:01;3.00;99.90
8372;DHT22;4223;48.724;8.982;2022-12-05T08:20:28;3.10;99.90
8372;DHT22;4223;48.724;8.982;2022-12-05T08:22:55;3.10;99.90
8372;DHT22;4223;48.724;8.982;2022-12-05T08:25:22;3.10;99.90
8372;DHT22;4223;48.724;8.982;2022-12-05T08:27:50;3.10;99.90
8372;DHT22;4223;48.724;8.982;2022-12-05T08:30:18;3.10;99.90
8372;DHT22;4223;48.724;8.982;2022-12-05T08:32:45;3.10;99.90
8372;DHT22;4223;48.724;8.982;2022-12-05T08:35:12;3.10;99.90
8372;DHT22;4223;48.724;8.982;2022-12-05T08:37:39;3.20;99.90
8372;DHT22;4223;48.724;8.982;2022-12-05T08:40:07;3.20;99.90
8372;DHT22;4223;48.724;8.982;2022-12-05T08:42:34;3.30;99.90
8372;DHT22;4223;48.724;8.982;2022-12-05T08:45:00;3.30;99.90
8372;DHT22;4223;48.724;8.982;2022-12-05T08:47:29;3.40;99.90
8372;DHT22;4223;48.724;8.982;2022-12-05T08:49:56;3.40;99.90
8372;DHT22;4223;48.724;8.982;2022-12-05T08:52:23;3.40;99.90
8372;DHT22;4223;48.724;8.982;2022-12-05T08:54:50;3.50;99.90
8372;DHT22;4223;48.724;8.982;2022-12-05T08:57:17;3.50;99.90
8372;DHT22;4223;48.724;8.982;2022-12-05T08:59:44;3.50;99.90
8372;DHT22;4223;48.724;8.982;2022-12-05T09:02:11;3.60;99.90
8372;DHT22;4223;48.724;8.982;2022-12-05T09:04:39;3.70;99.90
8372;DHT22;4223;48.724;8.982;2022-12-05T09:07:06;3.70;99.90
8372;DHT22;4223;48.724;8.982;2022-12-05T09:09:33;3.80;99.90
8372;DHT22;4223;48.724;8.982;2022-12-05T09:12:00;3.90;99.90
8372;DHT22;4223;48.724;8.982;2022-12-05T09:14:27;4.00;99.90
8372;DHT22;4223;48.724;8.982;2022-12-05T09:16:58;4.00;99.90
8372;DHT22;4223;48.724;8.982;2022-12-05T09:19:24;4.00;99.90
8372;DHT22;4223;48.724;8.982;2022-12-05T09:21:53;4.10;99.90
8372;DHT22;4223;48.724;8.982;2022-12-05T09:24:20;4.10;99.90
8372;DHT22;4223;48.724;8.982;2022-12-05T09:26:47;4.10;99.90
8372;DHT22;4223;48.724;8.982;2022-12-05T09:29:14;4.10;99.90
8372;DHT22;4223;48.724;8.982;2022-12-05T09:31:41;4.10;99.90
8372;DHT22;4223;48.724;8.982;2022-12-05T09:34:08;4.10;99.90
8372;DHT22;4223;48.724;8.982;2022-12-05T09:36:35;4.10;99.90
8372;DHT22;4223;48.724;8.982;2022-12-05T09:39:05;4.10;99.90
8372;DHT22;4223;48.724;8.982;2022-12-05T09:42:02;4.10;99.90
8372;DHT22;4223;48.724;8.982;2022-12-05T09:44:48;4.10;99.90
8372;DHT22;4223;48.724;8.982;2022-12-05T09:47:39;4.10;99.90
8372;DHT22;4223;48.724;8.982;2022-12-05T09:50:14;4.10;99.90
8372;DHT22;4223;48.724;8.982;2022-12-05T09:52:59;4.10;99.90
8372;DHT22;4223;48.724;8.982;2022-12-05T09:55:36;4.10;99.90
8372;DHT22;4223;48.724;8.982;2022-12-05T09:58:04;4.10;99.90
8372;DHT22;4223;48.724;8.982;2022-12-05T10:00:39;4.10;99.90
8372;DHT22;4223;48.724;8.982;2022-12-05T10:03:18;4.10;99.90
8372;DHT22;4223;48.724;8.982;2022-12-05T10:05:54;4.10;99.90
8372;DHT22;4223;48.724;8.982;2022-12-05T10:08:27;4.10;99.90
8372;DHT22;4223;48.724;8.982;2022-12-05T10:11:00;4.10;99.90
8372;DHT22;4223;48.724;8.982;2022-12-05T10:13:39;4.10;99.90
8372;DHT22;4223;48.724;8.982;2022-12-05T10:16:11;4.20;99.90
8372;DHT22;4223;48.724;8.982;2022-12-05T10:18:43;4.20;99.90
8372;DHT22;4223;48.724;8.982;2022-12-05T10:21:15;4.30;99.90
8372;DHT22;4223;48.724;8.982;2022-12-05T10:23:52;4.30;99.90
8372;DHT22;4223;48.724;8.982;2022-12-05T10:26:23;4.30;99.90
8372;DHT22;4223;48.724;8.982;2022-12-05T10:28:54;4.40;99.90
8372;DHT22;4223;48.724;8.982;2022-12-05T10:31:25;4.40;99.90
8372;DHT22;4223;48.724;8.982;2022-12-05T10:33:57;4.60;99.90
8372;DHT22;4223;48.724;8.982;2022-12-05T10:36:26;4.70;99.90
8372;DHT22;4223;48.724;8.982;2022-12-05T10:38:53;5.00;99.90
8372;DHT22;4223;48.724;8.982;2022-12-05T10:41:23;5.20;99.90
8372;DHT22;4223;48.724;8.982;2022-12-05T10:43:50;5.40;99.90
8372;DHT22;4223;48.724;8.982;2022-12-05T10:46:17;5.50;99.90
8372;DHT22;4223;48.724;8.982;2022-12-05T10:48:44;5.70;96.70
8372;DHT22;4223;48.724;8.982;2022-12-05T10:51:13;5.60;94.30
8372;DHT22;4223;48.724;8.982;2022-12-05T10:53:43;5.60;94.80
8372;DHT22;4223;48.724;8.982;2022-12-05T10:56:37;5.70;94.50
8372;DHT22;4223;48.724;8.982;2022-12-05T10:59:06;5.70;94.70
8372;DHT22;4223;48.724;8.982;2022-12-05T11:01:34;5.60;91.60
8372;DHT22;4223;48.724;8.982;2022-12-05T11:04:08;5.60;93.90
8372;DHT22;4223;48.724;8.982;2022-12-05T11:06:35;5.50;89.70
8372;DHT22;4223;48.724;8.982;2022-12-05T11:09:13;5.50;92.00
8372;DHT22;4223;48.724;8.982;2022-12-05T11:11:57;5.40;93.10
8372;DHT22;4223;48.724;8.982;2022-12-05T11:14:26;5.30;81.80
8372;DHT22;4223;48.724;8.982;2022-12-05T11:16:55;5.30;85.50
8372;DHT22;4223;48.724;8.982;2022-12-05T11:19:26;5.40;84.10
8372;DHT22;4223;48.724;8.982;2022-12-05T11:21:55;5.40;84.40
8372;DHT22;4223;48.724;8.982;2022-12-05T11:24:26;5.50;76.50
8372;DHT22;4223;48.724;8.982;2022-12-05T11:26:56;5.70;64.80
8372;DHT22;4223;48.724;8.982;2022-12-05T11:29:32;6.20;50.40
8372;DHT22;4223;48.724;8.982;2022-12-05T11:32:00;6.80;18.70
8372;DHT22;4223;48.724;8.982;2022-12-05T11:34:32;7.50;1.00
8372;DHT22;4223;48.724;8.982;2022-12-05T11:37:05;8.10;1.00
8372;DHT22;4223;48.724;8.982;2022-12-05T11:39:35;8.20;1.00
8372;DHT22;4223;48.724;8.982;2022-12-05T11:42:20;8.10;1.00
8372;DHT22;4223;48.724;8.982;2022-12-05T11:45:01;7.70;1.00
8372;DHT22;4223;48.724;8.982;2022-12-05T11:47:49;7.30;1.00
8372;DHT22;4223;48.724;8.982;2022-12-05T11:50:35;6.90;1.00
8372;DHT22;4223;48.724;8.982;2022-12-05T11:53:25;6.70;1.00
8372;DHT22;4223;48.724;8.982;2022-12-05T11:56:00;6.50;1.00
8372;DHT22;4223;48.724;8.982;2022-12-05T11:58:44;6.50;1.00
8372;DHT22;4223;48.724;8.982;2022-12-05T12:01:23;6.50;1.00
8372;DHT22;4223;48.724;8.982;2022-12-05T12:04:04;6.50;1.00
8372;DHT22;4223;48.724;8.982;2022-12-05T12:06:46;6.70;1.00
8372;DHT22;4223;48.724;8.982;2022-12-05T12:09:27;6.80;1.00
8372;DHT22;4223;48.724;8.982;2022-12-05T12:12:00;6.90;1.00
8372;DHT22;4223;48.724;8.982;2022-12-05T12:14:37;6.70;1.00
8372;DHT22;4223;48.724;8.982;2022-12-05T12:17:14;6.60;1.00
8372;DHT22;4223;48.724;8.982;2022-12-05T12:19:57;6.70;1.00
8372;DHT22;4223;48.724;8.982;2022-12-05T12:22:36;6.70;1.00
8372;DHT22;4223;48.724;8.982;2022-12-05T12:25:23;6.70;1.00
8372;DHT22;4223;48.724;8.982;2022-12-05T12:28:01;6.90;1.00
8372;DHT22;4223;48.724;8.982;2022-12-05T12:30:42;7.10;1.00
8372;DHT22;4223;48.724;8.982;2022-12-05T12:33:18;7.40;1.00
8372;DHT22;4223;48.724;8.982;2022-12-05T12:35:56;7.40;1.00
8372;DHT22;4223;48.724;8.982;2022-12-05T12:38:43;7.60;1.00
8372;DHT22;4223;48.724;8.982;2022-12-05T12:41:23;7.60;1.00
8372;DHT22;4223;48.724;8.982;2022-12-05T12:44:04;7.60;1.00
8372;DHT22;4223;48.724;8.982;2022-12-05T12:46:42;7.50;1.00
8372;DHT22;4223;48.724;8.982;2022-12-05T12:49:28;7.30;1.00
8372;DHT22;4223;48.724;8.982;2022-12-05T12:52:01;7.20;1.00
8372;DHT22;4223;48.724;8.982;2022-12-05T12:54:58;7.10;1.00
8372;DHT22;4223;48.724;8.982;2022-12-05T12:57:34;6.90;1.00
8372;DHT22;4223;48.724;8.982;2022-12-05T13:00:10;6.60;1.00
8372;DHT22;4223;48.724;8.982;2022-12-05T13:02:42;6.30;1.00
8372;DHT22;4223;48.724;8.982;2022-12-05T13:05:20;6.20;1.00
8372;DHT22;4223;48.724;8.982;2022-12-05T13:07:51;6.30;1.00
8372;DHT22;4223;48.724;8.982;2022-12-05T13:10:24;6.20;1.00
8372;DHT22;4223;48.724;8.982;2022-12-05T13:12:53;6.10;11.50
8372;DHT22;4223;48.724;8.982;2022-12-05T13:15:26;6.00;14.70
8372;DHT22;4223;48.724;8.982;2022-12-05T13:17:55;5.90;1.00
8372;DHT22;4223;48.724;8.982;2022-12-05T13:20:26;5.90;12.40
8372;DHT22;4223;48.724;8.982;2022-12-05T13:22:56;5.90;36.70
8372;DHT22;4223;48.724;8.982;2022-12-05T13:25:27;5.90;1.00
8372;DHT22;4223;48.724;8.982;2022-12-05T13:27:56;5.80;1.00
8372;DHT22;4223;48.724;8.982;2022-12-05T13:30:24;5.90;1.00
8372;DHT22;4223;48.724;8.982;2022-12-05T13:32:57;6.20;1.00
8372;DHT22;4223;48.724;8.982;2022-12-05T13:35:29;6.40;1.00
8372;DHT22;4223;48.724;8.982;2022-12-05T13:38:28;6.50;1.00
8372;DHT22;4223;48.724;8.982;2022-12-05T13:41:12;6.50;1.00
8372;DHT22;4223;48.724;8.982;2022-12-05T13:43:58;6.50;1.00
8372;DHT22;4223;48.724;8.982;2022-12-05T13:46:28;6.30;1.00
8372;DHT22;4223;48.724;8.982;2022-12-05T13:49:03;6.30;1.00
8372;DHT22;4223;48.724;8.982;2022-12-05T13:51:33;6.30;1.00
8372;DHT22;4223;48.724;8.982;2022-12-05T13:54:05;6.10;1.00
8372;DHT22;4223;48.724;8.982;2022-12-05T13:56:49;6.10;1.00
8372;DHT22;4223;48.724;8.982;2022-12-05T14:02:52;5.80;1.00
8372;DHT22;4223;48.724;8.982;2022-12-05T14:05:54;5.80;1.00
8372;DHT22;4223;48.724;8.982;2022-12-05T14:11:11;5.70;1.00
8372;DHT22;4223;48.724;8.982;2022-12-05T14:13:40;5.60;1.00
8372;DHT22;4223;48.724;8.982;2022-12-05T14:16:40;5.50;1.00
8372;DHT22;4223;48.724;8.982;2022-12-05T14:19:52;5.50;1.00
8372;DHT22;4223;48.724;8.982;2022-12-05T14:22:51;5.50;9.40
8372;DHT22;4223;48.724;8.982;2022-12-05T14:25:33;5.60;15.60
8372;DHT22;4223;48.724;8.982;2022-12-05T14:28:10;5.70;5.20
8372;DHT22;4223;48.724;8.982;2022-12-05T14:30:44;5.80;1.00
8372;DHT22;4223;48.724;8.982;2022-12-05T14:33:15;5.70;1.00
8372;DHT22;4223;48.724;8.982;2022-12-05T14:35:45;5.70;1.00
8372;DHT22;4223;48.724;8.982;2022-12-05T14:38:21;5.50;1.00
8372;DHT22;4223;48.724;8.982;2022-12-05T14:40:49;5.50;1.00
8372;DHT22;4223;48.724;8.982;2022-12-05T14:43:18;5.40;1.00
8372;DHT22;4223;48.724;8.982;2022-12-05T14:45:57;5.30;1.00
8372;DHT22;4223;48.724;8.982;2022-12-05T14:48:28;5.30;1.00
8372;DHT22;4223;48.724;8.982;2022-12-05T14:50:57;5.20;1.00
8372;DHT22;4223;48.724;8.982;2022-12-05T14:53:36;5.20;1.00
8372;DHT22;4223;48.724;8.982;2022-12-05T14:56:11;5.10;1.00
8372;DHT22;4223;48.724;8.982;2022-12-05T14:58:44;5.10;1.00
8372;DHT22;4223;48.724;8.982;2022-12-05T15:01:15;5.10;1.00
8372;DHT22;4223;48.724;8.982;2022-12-05T15:04:01;5.00;1.20
8372;DHT22;4223;48.724;8.982;2022-12-05T15:06:32;5.00;1.00
8372;DHT22;4223;48.724;8.982;2022-12-05T15:09:06;4.90;11.80
8372;DHT22;4223;48.724;8.982;2022-12-05T15:11:33;4.90;14.70
8372;DHT22;4223;48.724;8.982;2022-12-05T15:14:11;4.80;18.10
8372;DHT22;4223;48.724;8.982;2022-12-05T15:16:44;4.80;30.60
8372;DHT22;4223;48.724;8.982;2022-12-05T15:19:16;4.80;32.90
8372;DHT22;4223;48.724;8.982;2022-12-05T15:21:46;4.80;37.00
8372;DHT22;4223;48.724;8.982;2022-12-05T15:24:16;4.70;37.30
8372;DHT22;4223;48.724;8.982;2022-12-05T15:26:45;4.70;41.70
8372;DHT22;4223;48.724;8.982;2022-12-05T15:29:15;4.70;37.70
8372;DHT22;4223;48.724;8.982;2022-12-05T15:31:50;4.60;40.10
8372;DHT22;4223;48.724;8.982;2022-12-05T15:34:20;4.60;48.20
8372;DHT22;4223;48.724;8.982;2022-12-05T15:36:51;4.50;49.90
8372;DHT22;4223;48.724;8.982;2022-12-05T15:39:23;4.40;52.60
8372;DHT22;4223;48.724;8.982;2022-12-05T15:41:53;4.40;54.40
8372;DHT22;4223;48.724;8.982;2022-12-05T15:44:21;4.30;57.50
8372;DHT22;4223;48.724;8.982;2022-12-05T15:46:54;4.20;64.20
8372;DHT22;4223;48.724;8.982;2022-12-05T15:49:23;4.20;66.70
8372;DHT22;4223;48.724;8.982;2022-12-05T15:51:52;4.20;65.40
8372;DHT22;4223;48.724;8.982;2022-12-05T15:54:26;4.10;67.70
8372;DHT22;4223;48.724;8.982;2022-12-05T15:56:58;4.10;74.50
8372;DHT22;4223;48.724;8.982;2022-12-05T15:59:32;4.10;79.90
8372;DHT22;4223;48.724;8.982;2022-12-05T16:02:03;4.10;81.50
8372;DHT22;4223;48.724;8.982;2022-12-05T16:04:36;4.10;86.60
8372;DHT22;4223;48.724;8.982;2022-12-05T16:07:08;4.10;89.00
8372;DHT22;4223;48.724;8.982;2022-12-05T16:09:40;4.10;89.60
8372;DHT22;4223;48.724;8.982;2022-12-05T16:12:23;4.00;91.30
8372;DHT22;4223;48.724;8.982;2022-12-05T16:14:54;4.00;91.70
8372;DHT22;4223;48.724;8.982;2022-12-05T16:17:21;4.00;92.90
8372;DHT22;4223;48.724;8.982;2022-12-05T16:19:48;4.00;94.00
8372;DHT22;4223;48.724;8.982;2022-12-05T16:22:20;4.00;95.70
8372;DHT22;4223;48.724;8.982;2022-12-05T16:24:55;4.00;94.60
8372;DHT22;4223;48.724;8.982;2022-12-05T16:27:26;4.00;93.10
8372;DHT22;4223;48.724;8.982;2022-12-05T16:30:12;4.00;94.70
8372;DHT22;4223;48.724;8.982;2022-12-05T16:32:43;4.00;95.80
8372;DHT22;4223;48.724;8.982;2022-12-05T16:35:31;4.00;96.20
8372;DHT22;4223;48.724;8.982;2022-12-05T16:38:03;4.00;96.00
8372;DHT22;4223;48.724;8.982;2022-12-05T16:40:32;4.00;96.70
8372;DHT22;4223;48.724;8.982;2022-12-05T16:43:04;6.40;97.70
8372;DHT22;4223;48.724;8.982;2022-12-05T16:45:38;4.00;96.80
8372;DHT22;4223;48.724;8.982;2022-12-05T16:48:14;4.00;97.30
8372;DHT22;4223;48.724;8.982;2022-12-05T16:50:41;4.00;97.80
8372;DHT22;4223;48.724;8.982;2022-12-05T16:53:27;4.00;97.60
8372;DHT22;4223;48.724;8.982;2022-12-05T16:55:57;4.00;97.50
8372;DHT22;4223;48.724;8.982;2022-12-05T16:58:26;4.00;98.80
8372;DHT22;4223;48.724;8.982;2022-12-05T17:00:59;4.00;99.90
8372;DHT22;4223;48.724;8.982;2022-12-05T17:03:26;4.00;99.90